Nearby METAR Reports

 

KEQY - Monroe, North Carolina, USA
Distance from station: S 11mi, 18km
Updated: Sat, 12/20/2014 12:53pm EST
Overcast
Overcast
 Wind from NE
Wind: NE 6 mph , 9 km/h
Temperature: 43°F , 6°C
Wind Chill: 39°F , 4°C
Dew Point: 36°F , 2°C
Humidity: 76%
Barometer: 30.21 inHg , 1023 hPa
Clouds: Overcast
Visibility: 10 miles , 16 km
Cloud details: Overcast 2800 ft
2014/12/20 17:53 KEQY 201753Z AUTO 04005KT 10SM OVC028 06/02 A3021 RMK AO2 SLP248 60001 T00610022 10061 20039 58015
KJQF - Concord Reg Arpt, North Carolina, USA
Distance from station: NNW 16mi, 25km
Updated: Sat, 12/20/2014 12:55pm EST
Overcast
Overcast
 Wind from calm
Wind: Calm
Temperature: 45°F , 7°C
Dew Point: 34°F , 1°C
Humidity: 66%
Barometer: 30.25 inHg , 1024.4 hPa
Clouds: Overcast
Visibility: 7 miles , 11 km
Cloud details: Overcast 3300 ft
2014/12/20 17:55 KJQF 201755Z 00000KT 7SM OVC033 07/01 A3025
 
KCLT - Charlotte, North Carolina, USA
Distance from station: W 20mi, 33km
Updated: Sat, 12/20/2014 12:52pm EST
Overcast
Overcast
 Wind from ESE
Wind: ESE 5 mph , 7 km/h
Temperature: 45°F , 7°C
Wind Chill: 42°F , 6°C
Dew Point: 34°F , 1°C
Humidity: 66%
Barometer: 30.22 inHg , 1023.4 hPa
Clouds: Overcast
Visibility: 10 miles , 16 km
Cloud details: Overcast 3000 ft
2014/12/20 17:52 KCLT 201752Z 11004KT 10SM OVC030 07/01 A3022 RMK AO2 SLP235 60002 T00720006 10072 20044 58011
KUZA - Rock Hill, South Carolina, USA
Distance from station: WSW 29mi, 47km
Updated: Sat, 12/20/2014 12:54pm EST
Overcast
Overcast
 Wind from calm
Wind: Calm
Temperature: 45°F , 7°C
Dew Point: 37°F , 3°C
Humidity: 76%
Barometer: 30.22 inHg , 1023.4 hPa
Clouds: Overcast
Visibility: 8 miles , 13 km
Cloud details: Overcast 2600 ft
2014/12/20 17:54 KUZA 201754Z AUTO 00000KT 8SM OVC026 07/03 A3022 RMK AO2 SLP238 60004 T00670028 10067 20044 58007
 
KVUJ - Albemarle Stanly, North Carolina, USA
Distance from station: NE 30mi, 48km
Updated: Sat, 12/20/2014 1:15pm EST
Overcast
Overcast
 Wind from ENE
Wind: ENE 3 mph , 6 km/h
Temperature: 43°F , 6°C
Dew Point: 36°F , 2°C
Humidity: 76%
Barometer: 30.27 inHg , 1025.1 hPa
Clouds: Overcast
Visibility: 10 miles , 16 km
Cloud details: Overcast 3500 ft
2014/12/20 18:15 KVUJ 201815Z AUTO 06003KT 10SM OVC035 06/02 A3027 RMK AO2 T00590020
KAFP - Wadesboro/Anson, North Carolina, USA
Distance from station: ESE 31mi, 50km
Updated: Sat, 12/20/2014 1:15pm EST
Overcast
Overcast
 Wind from ENE
Wind: ENE 3 mph , 6 km/h
Temperature: 43°F , 6°C
Dew Point: 37°F , 3°C
Humidity: 81%
Barometer: 30.23 inHg , 1023.7 hPa
Clouds: Overcast
Visibility: 10 miles , 16 km
Cloud details: Partly cloudy 1100 ft
Overcast 3300 ft
2014/12/20 18:15 KAFP 201815Z AUTO 06003KT 10SM SCT011 OVC033 06/03 A3023 RMK AO2 T00580026
 
KAKH - Gastonia, North Carolina, USA
Distance from station: W 31mi, 51km
Updated: Sat, 12/20/2014 12:54pm EST
Overcast
Overcast
 Wind from calm
Wind: Calm
Temperature: 45°F , 7°C
Dew Point: 36°F , 2°C
Humidity: 71%
Barometer: 30.22 inHg , 1023.4 hPa
Clouds: Overcast
Visibility: 9 miles , 14 km
Cloud details: Overcast 2400 ft
2014/12/20 17:54 KAKH 201754Z AUTO 00000KT 9SM OVC024 07/02 A3022 RMK AO2 SLP235 60002 T00720022 10072 20044 58008
KRUQ - Salisbury Rowan, North Carolina, USA
Distance from station: N 33mi, 53km
Updated: Sat, 12/20/2014 1:15pm EST
Overcast
Overcast
 Wind from calm
Wind: Calm
Temperature: 41°F , 5°C
Dew Point: 32°F , 0°C
Humidity: 70%
Barometer: 30.22 inHg , 1023.4 hPa
Clouds: Overcast
Visibility: 10 miles , 16 km
Cloud details: Mostly cloudy 3700 ft
Overcast 4700 ft
2014/12/20 18:15 KRUQ 201815Z AUTO 00000KT 10SM BKN037 OVC047 05/00 A3022 RMK AO2 T00531002
 
KLKR - Lancaster, South Carolina, USA
Distance from station: SSW 35mi, 57km
Updated: Sat, 12/20/2014 1:35pm EST
Overcast
Overcast
 Wind from ENE
Wind: ENE 5 mph , 7 km/h
Temperature: 45°F , 7°C
Wind Chill: 42°F , 6°C
Dew Point: 43°F , 6°C
Humidity: 93%
Barometer: 30.21 inHg , 1023 hPa
Clouds: Overcast
Visibility: 10 miles , 16 km
Cloud details: Overcast 2600 ft
2014/12/20 18:35 KLKR 201835Z AUTO 06004KT 10SM OVC026 07/06 A3021 RMK AO2
KIPJ - Lincolnton, North Carolina, USA
Distance from station: WNW 39mi, 62km
Updated: Sat, 12/20/2014 1:15pm EST
Overcast
Overcast
 Wind from calm
Wind: Calm
Temperature: 43°F , 6°C
Dew Point: 32°F , 0°C
Humidity: 66%
Barometer: 30.21 inHg , 1023 hPa
Clouds: Overcast
Visibility: 10 miles , 16 km
Cloud details: Overcast 3000 ft
2014/12/20 18:15 KIPJ 201815Z AUTO 00000KT 10SM OVC030 06/00 A3021 RMK AO2 T00620001
 
KDCM - Chester Catawba, South Carolina, USA
Distance from station: SW 44mi, 71km
Updated: Sat, 12/20/2014 1:35pm EST
Overcast
Overcast
 Wind from N
Wind: N 3 mph , 6 km/h
Temperature: 46°F , 8°C
Dew Point: 41°F , 5°C
Humidity: 82%
Barometer: 30.22 inHg , 1023.4 hPa
Clouds: Overcast
Visibility: 7 miles , 11 km
Cloud details: Mostly cloudy 800 ft
Overcast 2500 ft
2014/12/20 18:35 KDCM 201835Z AUTO 01003KT 7SM BKN008 OVC025 08/05 A3022 RMK AO2
KSVH - Statesville, North Carolina, USA
Distance from station: NNW 44mi, 71km
Updated: Sat, 12/20/2014 1:15pm EST
Overcast
Overcast
 Wind from calm
Wind: Calm
Temperature: 41°F , 5°C
Dew Point: 30°F , -1°C
Humidity: 66%
Barometer: 30.21 inHg , 1023 hPa
Clouds: Overcast
Visibility: 10 miles , 16 km
Cloud details: Overcast 2800 ft
2014/12/20 18:15 KSVH 201815Z AUTO 00000KT 10SM OVC028 05/M01 A3021 RMK AO2 T00511008
 
KEXX - Davidson Cty Ap, North Carolina, USA
Distance from station: NNE 45mi, 72km
Updated: Sat, 12/20/2014 1:15pm EST
Overcast
Overcast
 Wind from calm
Wind: Calm
Temperature: 41°F , 5°C
Dew Point: 32°F , 0°C
Humidity: 70%
Barometer: 30.22 inHg , 1023.4 hPa
Clouds: Overcast
Visibility: 10 miles , 16 km
Cloud details: Mostly cloudy 3800 ft
Overcast 4600 ft
2014/12/20 18:15 KEXX 201815Z AUTO 00000KT 10SM BKN038 OVC046 05/00 A3022 RMK AO2 T00510003
KCQW - Cheraw, South Carolina, USA
Distance from station: SE 49mi, 78km
Updated: Sat, 12/20/2014 1:15pm EST
Overcast
Overcast
 Wind from E
Wind: E 5 mph , 7 km/h
Temperature: 43°F , 6°C
Wind Chill: 40°F , 4°C
Dew Point: 39°F , 4°C
Humidity: 87%
Barometer: 30.23 inHg , 1023.7 hPa
Clouds: Overcast
Visibility: 10 miles , 16 km
Cloud details: Overcast 3200 ft
2014/12/20 18:15 KCQW 201815Z AUTO 08004KT 10SM OVC032 06/04 A3023 RMK AO2